KLM24P LSZH-EDDS
Flight info
| Callsign | KLM24P |
|---|---|
| Flight time | N/A |
| Altitude | 17000 |
| Route | DEGES Z1 BODAN/N0369F160 Z1 ALAGO Z4 ARSUT T125 REUTL REUTL5A |
| Aircraft | B738/M-SDE2E3FGHIRWXY/LB1 |
Departure
| Time | 2026-04-26 17:45 |
|---|---|
| Airport | Zürich Airport (LSZH) |
Arrival
| Time | N/A |
|---|---|
| Airport | Stuttgart Airport (EDDS) |
| Time | Latitude | Longitude | Altitude | Speed | Heading |
|---|---|---|---|---|---|
| 2026-04-26 17:19 | 47.45422 | 8.55872 | 1403 ft | 0 kts | 186° |
| 2026-04-26 17:38 | 47.45450 | 8.55879 | 1403 ft | 2 kts | 184° |
| 2026-04-26 17:38 | 47.45464 | 8.55881 | 1403 ft | 2 kts | 187° |
| 2026-04-26 17:38 | 47.45477 | 8.55883 | 1402 ft | 1 kts | 186° |
| 2026-04-26 17:38 | 47.45488 | 8.55884 | 1402 ft | 2 kts | 163° |
| 2026-04-26 17:39 | 47.45500 | 8.55867 | 1402 ft | 2 kts | 105° |
| 2026-04-26 17:39 | 47.45501 | 8.55856 | 1401 ft | 1 kts | 92° |
| 2026-04-26 17:39 | 47.45501 | 8.55853 | 1401 ft | 0 kts | 95° |
| 2026-04-26 17:41 | 47.45499 | 8.55887 | 1402 ft | 8 kts | 95° |
| 2026-04-26 17:41 | 47.45491 | 8.55987 | 1404 ft | 13 kts | 96° |
| 2026-04-26 17:41 | 47.45484 | 8.56090 | 1408 ft | 8 kts | 96° |
| 2026-04-26 17:41 | 47.45479 | 8.56158 | 1411 ft | 8 kts | 96° |
| 2026-04-26 17:42 | 47.45491 | 8.56232 | 1412 ft | 10 kts | 44° |
| 2026-04-26 17:42 | 47.45562 | 8.56254 | 1410 ft | 12 kts | 7° |
| 2026-04-26 17:42 | 47.45603 | 8.56339 | 1409 ft | 12 kts | 93° |
| 2026-04-26 17:42 | 47.45596 | 8.56455 | 1411 ft | 13 kts | 96° |
| 2026-04-26 17:43 | 47.45586 | 8.56596 | 1414 ft | 16 kts | 96° |
| 2026-04-26 17:43 | 47.45576 | 8.56742 | 1416 ft | 14 kts | 96° |
| 2026-04-26 17:43 | 47.45568 | 8.56865 | 1418 ft | 12 kts | 96° |
| 2026-04-26 17:43 | 47.45564 | 8.56965 | 1419 ft | 9 kts | 75° |
| 2026-04-26 17:44 | 47.45620 | 8.57014 | 1418 ft | 14 kts | 3° |
| 2026-04-26 17:44 | 47.45670 | 8.56909 | 1415 ft | 17 kts | 275° |
| 2026-04-26 17:44 | 47.45689 | 8.56653 | 1410 ft | 53 kts | 276° |
| 2026-04-26 17:44 | 47.45748 | 8.55813 | 1398 ft | 126 kts | 276° |
| 2026-04-26 17:45 | 47.45857 | 8.54328 | 1390 ft | 186 kts | 277° |
| 2026-04-26 17:45 | 47.45987 | 8.52426 | 2018 ft | 197 kts | 277° |
| 2026-04-26 17:45 | 47.46122 | 8.50610 | 3011 ft | 194 kts | 280° |
| 2026-04-26 17:45 | 47.46286 | 8.48746 | 3631 ft | 202 kts | 280° |
| 2026-04-26 17:46 | 47.46222 | 8.46749 | 4117 ft | 219 kts | 252° |
| 2026-04-26 17:46 | 47.45402 | 8.45039 | 4615 ft | 234 kts | 218° |
| 2026-04-26 17:46 | 47.44176 | 8.43895 | 5352 ft | 237 kts | 212° |
| 2026-04-26 17:46 | 47.43065 | 8.42245 | 6154 ft | 239 kts | 245° |
| 2026-04-26 17:47 | 47.42662 | 8.40105 | 7041 ft | 235 kts | 264° |
| 2026-04-26 17:47 | 47.42543 | 8.38677 | 7534 ft | 237 kts | 263° |
| 2026-04-26 17:47 | 47.41888 | 8.35892 | 8530 ft | 241 kts | 234° |
| 2026-04-26 17:47 | 47.40785 | 8.34459 | 9270 ft | 242 kts | 208° |
| 2026-04-26 17:48 | 47.39394 | 8.33672 | 9944 ft | 246 kts | 192° |
| 2026-04-26 17:48 | 47.37818 | 8.33446 | 10634 ft | 250 kts | 179° |
| 2026-04-26 17:48 | 47.36224 | 8.33759 | 11279 ft | 256 kts | 163° |
| 2026-04-26 17:48 | 47.34788 | 8.34858 | 11932 ft | 260 kts | 140° |
| 2026-04-26 17:49 | 47.33680 | 8.36639 | 12586 ft | 263 kts | 123° |
| 2026-04-26 17:49 | 47.32913 | 8.38827 | 13165 ft | 268 kts | 106° |
| 2026-04-26 17:49 | 47.32668 | 8.41262 | 13775 ft | 269 kts | 84° |
| 2026-04-26 17:49 | 47.33028 | 8.43699 | 14381 ft | 270 kts | 65° |
| 2026-04-26 17:50 | 47.33891 | 8.45960 | 15011 ft | 269 kts | 48° |
| 2026-04-26 17:50 | 47.35245 | 8.47725 | 15633 ft | 268 kts | 25° |
| 2026-04-26 17:50 | 47.36871 | 8.48583 | 16262 ft | 265 kts | 7° |
| 2026-04-26 17:50 | 47.38556 | 8.48994 | 16892 ft | 265 kts | 5° |
| 2026-04-26 17:51 | 47.40315 | 8.49398 | 17183 ft | 271 kts | 5° |
| 2026-04-26 17:51 | 47.42053 | 8.49869 | 17187 ft | 271 kts | 12° |
| 2026-04-26 17:51 | 47.43641 | 8.50929 | 17196 ft | 275 kts | 33° |
| 2026-04-26 17:51 | 47.44920 | 8.52679 | 17199 ft | 280 kts | 47° |
| 2026-04-26 17:52 | 47.45986 | 8.54742 | 17194 ft | 282 kts | 52° |
| 2026-04-26 17:52 | 47.46865 | 8.57445 | 17192 ft | 307 kts | 76° |
| 2026-04-26 17:52 | 47.46920 | 8.60645 | 17208 ft | 330 kts | 96° |
| 2026-04-26 17:52 | 47.46448 | 8.63949 | 17197 ft | 352 kts | 101° |
| 2026-04-26 17:53 | 47.46112 | 8.67379 | 17196 ft | 371 kts | 93° |
| 2026-04-26 17:53 | 47.46072 | 8.71089 | 17195 ft | 387 kts | 87° |
| 2026-04-26 17:53 | 47.46214 | 8.74729 | 17196 ft | 388 kts | 84° |
| 2026-04-26 17:54 | 47.46551 | 8.82250 | 17201 ft | 389 kts | 90° |
| 2026-04-26 17:54 | 47.46350 | 8.86079 | 17201 ft | 390 kts | 97° |
| 2026-04-26 17:54 | 47.45900 | 8.89811 | 17209 ft | 390 kts | 101° |
| 2026-04-26 17:54 | 47.45348 | 8.93439 | 17202 ft | 390 kts | 102° |
| 2026-04-26 17:55 | 47.44764 | 8.97072 | 17212 ft | 391 kts | 103° |
| 2026-04-26 17:55 | 47.44191 | 9.00643 | 17211 ft | 391 kts | 102° |
| 2026-04-26 17:55 | 47.43624 | 9.04246 | 17214 ft | 390 kts | 102° |
| 2026-04-26 17:55 | 47.43064 | 9.07897 | 17204 ft | 390 kts | 102° |
| 2026-04-26 17:56 | 47.42517 | 9.11536 | 17229 ft | 390 kts | 102° |
| 2026-04-26 17:56 | 47.41782 | 9.18731 | 17212 ft | 388 kts | 88° |
| 2026-04-26 17:57 | 47.43238 | 9.25805 | 17200 ft | 383 kts | 59° |
| 2026-04-26 17:57 | 47.44518 | 9.29114 | 17207 ft | 383 kts | 57° |
| 2026-04-26 17:57 | 47.45797 | 9.32283 | 17202 ft | 382 kts | 57° |
| 2026-04-26 17:57 | 47.47079 | 9.35410 | 17202 ft | 382 kts | 54° |
| 2026-04-26 17:58 | 47.52631 | 9.42313 | 17207 ft | 372 kts | 18° |
| 2026-04-26 17:59 | 47.57174 | 9.44466 | 17202 ft | 369 kts | 9° |
| 2026-04-26 17:59 | 47.59567 | 9.45051 | 17205 ft | 368 kts | 4° |
| 2026-04-26 17:59 | 47.61962 | 9.45378 | 17206 ft | 368 kts | 1° |
| 2026-04-26 17:59 | 47.64325 | 9.45561 | 17206 ft | 368 kts | 359° |
| 2026-04-26 18:00 | 47.66864 | 9.45684 | 17206 ft | 368 kts | 359° |
| 2026-04-26 18:00 | 47.69436 | 9.45785 | 17207 ft | 368 kts | 359° |
| 2026-04-26 18:00 | 47.71901 | 9.45884 | 17210 ft | 368 kts | 359° |
| 2026-04-26 18:00 | 47.74322 | 9.45992 | 17212 ft | 368 kts | 359° |
| 2026-04-26 18:01 | 47.76830 | 9.46091 | 17212 ft | 368 kts | 358° |
| 2026-04-26 18:01 | 47.79321 | 9.46009 | 17210 ft | 367 kts | 354° |
| 2026-04-26 18:01 | 47.81821 | 9.45579 | 17226 ft | 365 kts | 348° |
| 2026-04-26 18:01 | 47.84169 | 9.44896 | 17227 ft | 364 kts | 345° |
| 2026-04-26 18:02 | 47.86521 | 9.44065 | 17221 ft | 363 kts | 343° |
| 2026-04-26 18:02 | 47.88025 | 9.43497 | 17215 ft | 363 kts | 343° |
| 2026-04-26 18:02 | 47.91011 | 9.42348 | 17220 ft | 363 kts | 343° |
| 2026-04-26 18:02 | 47.93307 | 9.41472 | 17222 ft | 363 kts | 343° |
| 2026-04-26 18:03 | 47.95570 | 9.40620 | 17225 ft | 364 kts | 343° |
| 2026-04-26 18:03 | 47.97806 | 9.39788 | 17205 ft | 364 kts | 343° |
| 2026-04-26 18:03 | 48.00109 | 9.38937 | 17201 ft | 364 kts | 343° |
| 2026-04-26 18:03 | 48.02373 | 9.38106 | 17206 ft | 364 kts | 344° |
| 2026-04-26 18:04 | 48.04625 | 9.37280 | 17214 ft | 364 kts | 344° |
| 2026-04-26 18:04 | 48.06916 | 9.36440 | 17210 ft | 364 kts | 344° |
| 2026-04-26 18:04 | 48.09191 | 9.35605 | 17179 ft | 365 kts | 344° |
| 2026-04-26 18:05 | 48.13756 | 9.33938 | 16494 ft | 365 kts | 345° |
| 2026-04-26 18:05 | 48.16065 | 9.33282 | 16085 ft | 367 kts | 350° |
| 2026-04-26 18:05 | 48.18492 | 9.33057 | 15649 ft | 362 kts | 358° |
| 2026-04-26 18:05 | 48.20911 | 9.33252 | 15208 ft | 357 kts | 3° |
| 2026-04-26 18:06 | 48.23183 | 9.33630 | 14792 ft | 352 kts | 5° |
| 2026-04-26 18:06 | 48.25408 | 9.34062 | 14383 ft | 347 kts | 5° |
| 2026-04-26 18:06 | 48.27607 | 9.34490 | 13965 ft | 343 kts | 5° |
| 2026-04-26 18:06 | 48.29780 | 9.34898 | 13551 ft | 338 kts | 5° |
| 2026-04-26 18:07 | 48.31895 | 9.35279 | 13148 ft | 334 kts | 5° |
| 2026-04-26 18:07 | 48.33998 | 9.35642 | 12742 ft | 331 kts | 4° |
| 2026-04-26 18:07 | 48.36101 | 9.35814 | 12332 ft | 328 kts | 356° |
| 2026-04-26 18:07 | 48.37473 | 9.35590 | 12057 ft | 325 kts | 345° |
| 2026-04-26 18:08 | 48.40026 | 9.33990 | 11514 ft | 320 kts | 329° |
| 2026-04-26 18:08 | 48.41755 | 9.32413 | 11221 ft | 313 kts | 327° |
| 2026-04-26 18:08 | 48.43415 | 9.30808 | 11194 ft | 297 kts | 327° |
| 2026-04-26 18:08 | 48.45002 | 9.29305 | 11193 ft | 285 kts | 327° |
| 2026-04-26 18:09 | 48.46556 | 9.27891 | 11196 ft | 286 kts | 328° |
| 2026-04-26 18:09 | 48.48176 | 9.26461 | 11198 ft | 288 kts | 329° |
| 2026-04-26 18:09 | 48.49777 | 9.25076 | 11200 ft | 286 kts | 329° |
| 2026-04-26 18:09 | 48.51397 | 9.23687 | 11196 ft | 287 kts | 329° |
| 2026-04-26 18:10 | 48.53011 | 9.22305 | 11195 ft | 286 kts | 329° |
| 2026-04-26 18:10 | 48.54615 | 9.20929 | 11194 ft | 287 kts | 329° |
| 2026-04-26 18:10 | 48.56205 | 9.19553 | 11200 ft | 286 kts | 328° |